createdAt,value
2023-03-13T00:01:33.621Z,14.73
2023-03-13T00:04:01.920Z,14.15
2023-03-13T00:06:35.965Z,14.48
2023-03-13T00:09:09.931Z,14.82
2023-03-13T00:11:39.352Z,14.68
2023-03-13T00:14:08.303Z,11.55
2023-03-13T00:16:37.749Z,11.93
2023-03-13T00:19:07.328Z,11.05
2023-03-13T00:21:37.812Z,11.82
2023-03-13T00:24:07.543Z,13.77
2023-03-13T00:26:35.648Z,12.30
2023-03-13T00:29:03.654Z,11.75
2023-03-13T00:31:32.950Z,10.98
2023-03-13T00:34:02.633Z,12.02
2023-03-13T00:36:34.189Z,11.77
2023-03-13T00:39:04.754Z,11.45
2023-03-13T00:41:33.852Z,11.45
2023-03-13T00:44:01.955Z,11.00
2023-03-13T00:46:32.516Z,12.13
2023-03-13T00:49:00.424Z,11.60
2023-03-13T00:51:28.894Z,11.15
2023-03-13T00:54:00.600Z,10.35
2023-03-13T00:56:30.016Z,10.88
2023-03-13T00:59:00.609Z,8.82
2023-03-13T01:01:33.800Z,11.63
2023-03-13T01:04:04.943Z,9.93
2023-03-13T01:06:36.228Z,9.07
2023-03-13T01:09:06.453Z,8.43
2023-03-13T01:11:39.521Z,10.15
2023-03-13T01:16:38.974Z,8.45
2023-03-13T01:19:13.480Z,8.73
2023-03-13T01:21:43.155Z,9.07
2023-03-13T01:24:11.132Z,9.82
2023-03-13T01:26:39.998Z,8.68
2023-03-13T01:29:08.605Z,10.35
2023-03-13T01:31:37.425Z,9.07
2023-03-13T01:34:08.978Z,8.60
2023-03-13T01:36:38.022Z,11.32
2023-03-13T01:39:06.642Z,10.45
2023-03-13T01:41:35.364Z,9.88
2023-03-13T01:44:04.023Z,10.55
2023-03-13T01:46:38.082Z,8.82
2023-03-13T01:49:28.240Z,8.32
2023-03-13T01:52:34.436Z,9.30
2023-03-13T01:55:17.867Z,8.90
2023-03-13T01:57:53.257Z,8.13
2023-03-13T02:00:30.736Z,7.82
2023-03-13T02:03:03.944Z,7.93
2023-03-13T02:05:35.025Z,7.68
2023-03-13T02:08:19.122Z,7.35
2023-03-13T02:11:22.012Z,8.43
2023-03-13T02:13:51.737Z,9.32
2023-03-13T02:16:21.486Z,9.25
2023-03-13T02:18:50.516Z,8.57
2023-03-13T02:21:37.113Z,9.45
2023-03-13T02:24:29.351Z,9.15
2023-03-13T02:26:57.357Z,8.68
2023-03-13T02:29:26.333Z,10.38
2023-03-13T02:31:55.955Z,9.95
2023-03-13T02:34:29.888Z,9.00
2023-03-13T02:37:00.810Z,9.93
2023-03-13T02:39:31.402Z,11.48
2023-03-13T02:42:02.076Z,10.63
2023-03-13T02:44:30.323Z,9.65
2023-03-13T02:46:58.284Z,8.32
2023-03-13T02:49:30.195Z,7.50
2023-03-13T02:52:06.259Z,8.20
2023-03-13T02:54:38.720Z,9.27
2023-03-13T02:57:07.879Z,9.23
2023-03-13T02:59:36.007Z,11.38
2023-03-13T03:02:04.538Z,10.20
2023-03-13T03:04:32.645Z,10.98
2023-03-13T03:07:01.031Z,11.05
2023-03-13T03:09:29.612Z,9.18
2023-03-13T03:12:02.609Z,8.13
2023-03-13T03:14:31.276Z,7.75
2023-03-13T03:16:59.361Z,7.63
2023-03-13T03:19:28.247Z,8.10
2023-03-13T03:21:56.821Z,7.95
2023-03-13T03:24:25.053Z,7.95
2023-03-13T03:26:53.002Z,7.00
2023-03-13T03:29:27.940Z,8.30
2023-03-13T03:31:57.110Z,6.68
2023-03-13T03:34:26.496Z,9.40
2023-03-13T03:36:55.304Z,7.57
2023-03-13T03:39:23.361Z,6.55
2023-03-13T03:41:51.948Z,7.28
2023-03-13T03:44:19.913Z,7.85
2023-03-13T03:46:54.671Z,7.03
2023-03-13T03:49:24.415Z,7.25
2023-03-13T03:51:52.567Z,7.28
2023-03-13T03:54:26.988Z,6.20
2023-03-13T03:56:54.993Z,6.55
2023-03-13T03:59:23.121Z,6.03
2023-03-13T04:01:58.361Z,7.22
2023-03-13T04:04:28.933Z,6.35
2023-03-13T04:07:05.020Z,6.25
2023-03-13T04:09:34.386Z,5.30
2023-03-13T04:12:04.753Z,6.43
2023-03-13T04:14:36.609Z,6.85
2023-03-13T04:17:07.684Z,6.53
2023-03-13T04:19:35.982Z,7.00
2023-03-13T04:22:04.281Z,6.32
2023-03-13T04:24:32.719Z,6.40
2023-03-13T04:27:01.812Z,6.72
2023-03-13T04:29:30.391Z,7.95
2023-03-13T04:32:08.145Z,6.90
2023-03-13T04:35:00.345Z,5.50
2023-03-13T04:37:44.110Z,4.95
2023-03-13T04:40:37.623Z,4.72
2023-03-13T04:43:32.319Z,5.68
2023-03-13T04:46:13.077Z,5.35
2023-03-13T04:48:51.075Z,5.90
2023-03-13T04:51:38.060Z,6.90
2023-03-13T04:54:38.677Z,6.13
2023-03-13T04:57:20.086Z,7.18
2023-03-13T05:00:11.597Z,6.78
2023-03-13T05:02:40.094Z,6.63
2023-03-13T05:06:10.940Z,6.70
2023-03-13T05:09:05.864Z,6.60
2023-03-13T05:11:53.651Z,7.25
2023-03-13T05:14:31.654Z,7.50
2023-03-13T05:17:23.497Z,6.22
2023-03-13T05:19:58.459Z,6.93
2023-03-13T05:22:50.139Z,6.53
2023-03-13T05:25:32.935Z,6.35
2023-03-13T05:28:25.140Z,6.90
2023-03-13T05:31:10.320Z,6.43
2023-03-13T05:33:58.727Z,8.02
2023-03-13T05:36:27.019Z,9.35
2023-03-13T05:39:18.983Z,8.63
2023-03-13T05:41:50.110Z,9.43
2023-03-13T05:44:39.542Z,8.63
2023-03-13T05:47:26.727Z,9.40
2023-03-13T05:50:13.267Z,9.68
2023-03-13T05:56:14.621Z,8.27
2023-03-13T05:59:01.822Z,7.43
2023-03-13T06:01:45.592Z,7.40
2023-03-13T06:04:23.579Z,6.13
2023-03-13T06:06:51.668Z,6.78
2023-03-13T06:09:21.053Z,6.05
2023-03-13T06:11:49.358Z,6.80
2023-03-13T06:14:18.465Z,8.35
2023-03-13T06:17:14.124Z,9.10
2023-03-13T06:19:43.360Z,8.95
2023-03-13T06:22:12.083Z,7.00
2023-03-13T06:25:05.813Z,6.95
2023-03-13T06:27:33.748Z,9.73
2023-03-13T06:30:02.537Z,6.60
2023-03-13T06:32:31.892Z,6.10
2023-03-13T06:35:01.156Z,6.15
2023-03-13T06:37:29.112Z,5.70
2023-03-13T06:39:57.095Z,5.93
2023-03-13T06:42:24.987Z,6.00
2023-03-13T06:44:53.907Z,5.22
2023-03-13T06:47:22.317Z,5.25
2023-03-13T06:49:50.634Z,5.57
2023-03-13T06:52:19.464Z,6.30
2023-03-13T06:54:52.829Z,5.13
2023-03-13T06:57:33.121Z,5.95
2023-03-13T07:00:01.107Z,5.53
2023-03-13T07:02:30.675Z,4.72
2023-03-13T07:04:59.013Z,4.68
2023-03-13T07:07:32.164Z,4.97
2023-03-13T07:10:00.872Z,4.60
2023-03-13T07:12:29.236Z,6.22
2023-03-13T07:14:57.228Z,5.70
2023-03-13T07:17:25.229Z,5.85
2023-03-13T07:19:53.218Z,4.38
2023-03-13T07:22:21.662Z,5.15
2023-03-13T07:24:49.865Z,5.50
2023-03-13T07:27:21.078Z,5.47
2023-03-13T07:29:49.956Z,5.63
2023-03-13T07:32:18.583Z,5.18
2023-03-13T07:34:47.084Z,4.95
2023-03-13T07:37:16.841Z,4.85
2023-03-13T07:39:44.909Z,4.75
2023-03-13T07:42:13.227Z,4.20
2023-03-13T07:44:42.857Z,4.20
2023-03-13T07:47:11.625Z,3.85
2023-03-13T07:49:42.848Z,3.55
2023-03-13T07:52:10.749Z,4.85
2023-03-13T07:54:38.652Z,4.82
2023-03-13T07:57:07.062Z,4.88
2023-03-13T07:59:35.421Z,7.30
2023-03-13T08:02:04.597Z,5.55
2023-03-13T08:04:32.580Z,6.60
2023-03-13T08:07:00.982Z,6.45
2023-03-13T08:09:32.612Z,5.75
2023-03-13T08:12:00.591Z,5.07
2023-03-13T08:14:29.113Z,4.63
2023-03-13T08:16:56.992Z,4.50
2023-03-13T08:19:24.976Z,4.97
2023-03-13T08:21:53.073Z,4.60
2023-03-13T08:24:22.019Z,4.85
2023-03-13T08:26:50.082Z,5.53
2023-03-13T08:29:19.072Z,5.20
2023-03-13T08:31:48.837Z,6.38
2023-03-13T08:34:17.978Z,5.85
2023-03-13T08:36:46.537Z,6.65
2023-03-13T08:39:17.211Z,5.57
2023-03-13T08:41:45.245Z,6.13
2023-03-13T08:44:16.795Z,6.72
2023-03-13T08:46:45.128Z,5.43
2023-03-13T08:49:13.793Z,5.28
2023-03-13T08:51:41.779Z,4.97
2023-03-13T08:54:10.165Z,4.57
2023-03-13T08:56:38.937Z,4.55
2023-03-13T08:59:08.004Z,4.80
2023-03-13T09:01:37.182Z,4.53
2023-03-13T09:04:07.795Z,4.53
2023-03-13T09:06:37.505Z,5.78
2023-03-13T09:09:07.358Z,5.75
2023-03-13T09:11:38.374Z,5.70
2023-03-13T09:14:07.724Z,7.25
2023-03-13T09:16:36.561Z,6.47
2023-03-13T09:19:04.982Z,6.53
2023-03-13T09:21:35.344Z,7.05
2023-03-13T09:24:03.831Z,6.50
2023-03-13T09:26:32.317Z,5.80
2023-03-13T09:29:00.493Z,4.47
2023-03-13T09:31:30.652Z,4.75
2023-03-13T09:33:59.950Z,5.15
2023-03-13T09:36:28.799Z,4.50
2023-03-13T09:38:59.010Z,4.50
2023-03-13T09:41:39.085Z,5.10
2023-03-13T09:44:10.300Z,5.80
2023-03-13T09:47:08.606Z,4.88
2023-03-13T09:49:46.002Z,5.70
2023-03-13T09:52:19.837Z,5.72
2023-03-13T09:54:56.884Z,5.00
2023-03-13T09:57:40.369Z,5.00
2023-03-13T10:00:19.923Z,4.65
2023-03-13T10:02:58.246Z,4.82
2023-03-13T10:05:28.656Z,4.00
2023-03-13T10:08:02.191Z,4.82
2023-03-13T10:10:44.563Z,4.72
2023-03-13T10:13:37.079Z,4.18
2023-03-13T10:16:12.156Z,3.95
2023-03-13T10:18:45.003Z,5.05
2023-03-13T10:24:06.305Z,4.95
2023-03-13T10:26:37.259Z,6.32
2023-03-13T10:29:27.485Z,4.97
2023-03-13T10:32:03.534Z,9.05
2023-03-13T10:35:00.678Z,6.03
2023-03-13T10:37:40.162Z,7.72
2023-03-13T10:40:34.918Z,10.13
2023-03-13T10:43:24.972Z,6.63
2023-03-13T10:45:53.213Z,4.32
2023-03-13T10:48:27.564Z,5.45
2023-03-13T10:51:02.276Z,5.35
2023-03-13T10:53:31.396Z,4.75
2023-03-13T10:56:26.503Z,5.72
2023-03-13T10:58:54.855Z,8.40
2023-03-13T11:01:33.791Z,5.80
2023-03-13T11:04:20.561Z,5.82
2023-03-13T11:06:54.823Z,6.43
2023-03-13T11:09:24.571Z,5.70
2023-03-13T11:12:10.629Z,7.63
2023-03-13T11:14:38.528Z,6.40
2023-03-13T11:17:27.772Z,6.38
2023-03-13T11:20:00.192Z,5.78
2023-03-13T11:22:40.037Z,6.43
2023-03-13T11:25:18.196Z,6.65
2023-03-13T11:27:53.760Z,7.07
2023-03-13T11:30:36.869Z,6.65
2023-03-13T11:33:14.100Z,7.63
2023-03-13T11:35:53.401Z,7.00
2023-03-13T11:38:31.994Z,7.45
2023-03-13T11:41:29.160Z,6.63
2023-03-13T11:44:15.636Z,5.20
2023-03-13T11:47:07.796Z,5.05
2023-03-13T11:49:40.824Z,5.05
2023-03-13T11:52:43.792Z,4.57
2023-03-13T11:55:14.878Z,5.65
2023-03-13T11:57:57.217Z,4.85
2023-03-13T12:00:31.558Z,4.65
2023-03-13T12:03:35.262Z,3.67
2023-03-13T12:06:13.207Z,4.05
2023-03-13T12:08:51.039Z,3.70
2023-03-13T12:11:26.595Z,4.03
2023-03-13T12:13:54.792Z,4.30
2023-03-13T12:16:40.774Z,3.80
2023-03-13T12:19:14.059Z,4.43
2023-03-13T12:21:53.693Z,4.22
2023-03-13T12:24:31.214Z,3.63
2023-03-13T12:27:11.109Z,4.20
2023-03-13T12:30:07.507Z,3.53
2023-03-13T12:32:50.741Z,3.38
2023-03-13T12:38:15.673Z,3.22
2023-03-13T12:41:02.738Z,3.53
2023-03-13T12:43:33.993Z,3.95
2023-03-13T12:46:01.997Z,3.58
2023-03-13T12:48:45.583Z,4.55
2023-03-13T12:51:44.916Z,2.97
2023-03-13T12:54:34.578Z,4.32
2023-03-13T12:57:33.910Z,3.33
2023-03-13T13:00:06.988Z,3.50
2023-03-13T13:02:35.592Z,2.97
2023-03-13T13:05:04.323Z,2.88
2023-03-13T13:07:38.255Z,3.35
2023-03-13T13:10:10.133Z,2.53
2023-03-13T13:12:42.673Z,2.78
2023-03-13T13:15:19.518Z,2.63
2023-03-13T13:18:03.117Z,2.95
2023-03-13T13:20:37.974Z,2.83
2023-03-13T13:23:26.106Z,2.90
2023-03-13T13:25:56.629Z,3.10
2023-03-13T13:28:32.571Z,3.25
2023-03-13T13:31:01.975Z,2.72
2023-03-13T13:33:31.126Z,3.30
2023-03-13T13:36:09.108Z,3.20
2023-03-13T13:38:40.448Z,3.20
2023-03-13T13:41:12.268Z,2.95
2023-03-13T13:43:42.932Z,3.10
2023-03-13T13:46:29.411Z,2.70
2023-03-13T13:49:17.298Z,3.80
2023-03-13T13:52:03.946Z,3.13
2023-03-13T13:54:45.576Z,3.67
2023-03-13T13:57:19.817Z,2.60
2023-03-13T14:00:16.412Z,2.90
2023-03-13T14:02:56.359Z,3.20
2023-03-13T14:05:33.250Z,3.42
2023-03-13T14:08:13.801Z,3.47
2023-03-13T14:10:54.871Z,4.03
2023-03-13T14:13:25.013Z,3.25
2023-03-13T14:15:54.461Z,3.45
2023-03-13T14:18:28.425Z,3.25
2023-03-13T14:21:14.232Z,3.35
2023-03-13T14:23:45.202Z,3.33
2023-03-13T14:26:26.971Z,3.72
2023-03-13T14:28:58.382Z,2.83
2023-03-13T14:31:35.272Z,3.38
2023-03-13T14:34:09.754Z,3.72
2023-03-13T14:37:01.457Z,3.33
2023-03-13T14:39:48.775Z,3.35
2023-03-13T14:42:19.112Z,3.88
2023-03-13T14:44:50.345Z,3.30
2023-03-13T14:47:33.184Z,3.63
2023-03-13T14:50:05.044Z,3.63
2023-03-13T14:52:34.203Z,3.67
2023-03-13T14:55:26.026Z,3.60
2023-03-13T14:57:56.555Z,3.55
2023-03-13T15:00:44.738Z,4.50
2023-03-13T15:03:43.244Z,4.65
2023-03-13T15:06:11.181Z,4.93
2023-03-13T15:08:41.847Z,4.55
2023-03-13T15:11:32.289Z,4.50
2023-03-13T15:14:01.148Z,4.22
2023-03-13T15:16:29.727Z,3.67
2023-03-13T15:18:57.873Z,4.07
2023-03-13T15:21:31.228Z,3.65
2023-03-13T15:24:02.553Z,4.47
2023-03-13T15:26:30.735Z,3.90
2023-03-13T15:28:58.694Z,4.43
2023-03-13T15:31:29.213Z,4.70
2023-03-13T15:33:59.734Z,5.28
2023-03-13T15:36:29.545Z,4.70
2023-03-13T15:38:58.008Z,4.80
2023-03-13T15:41:26.143Z,4.60
2023-03-13T15:43:55.535Z,4.40
2023-03-13T15:46:30.715Z,4.03
2023-03-13T15:48:58.757Z,4.35
2023-03-13T15:51:27.905Z,4.30
2023-03-13T15:53:56.129Z,4.32
2023-03-13T15:56:24.461Z,3.90
2023-03-13T15:58:52.490Z,4.55
2023-03-13T16:01:22.519Z,5.55
2023-03-13T16:03:50.812Z,4.82
2023-03-13T16:06:21.538Z,5.15
2023-03-13T16:08:49.719Z,4.93
2023-03-13T16:11:17.992Z,4.50
2023-03-13T16:13:46.050Z,5.50
2023-03-13T16:16:21.515Z,5.93
2023-03-13T16:18:51.070Z,5.60
2023-03-13T16:21:27.640Z,7.28
2023-03-13T16:23:56.106Z,8.25
2023-03-13T16:26:26.840Z,10.32
2023-03-13T16:28:55.610Z,10.63
2023-03-13T16:31:27.782Z,16.25
2023-03-13T16:33:57.301Z,15.77
2023-03-13T16:36:31.327Z,17.08
2023-03-13T16:39:02.276Z,14.50
2023-03-13T16:41:30.438Z,15.15
2023-03-13T16:43:58.595Z,16.65
2023-03-13T16:46:55.581Z,15.00
2023-03-13T16:49:27.253Z,16.33
2023-03-13T16:51:55.200Z,15.50
2023-03-13T16:54:23.183Z,15.35
2023-03-13T16:56:51.253Z,12.88
2023-03-13T16:59:19.764Z,11.70
2023-03-13T17:01:47.638Z,9.60
2023-03-13T17:04:15.805Z,11.20
2023-03-13T17:06:44.890Z,12.30
2023-03-13T17:09:15.861Z,11.65
2023-03-13T17:11:44.453Z,12.27
2023-03-13T17:14:13.665Z,8.82
2023-03-13T17:16:45.842Z,10.43
2023-03-13T17:19:15.049Z,11.23
2023-03-13T17:21:43.452Z,10.82
2023-03-13T17:24:11.528Z,10.45
2023-03-13T17:26:40.255Z,11.30
2023-03-13T17:29:14.539Z,11.30
2023-03-13T17:31:42.575Z,9.73
2023-03-13T17:34:10.873Z,8.35
2023-03-13T17:36:39.721Z,8.85
2023-03-13T17:39:10.614Z,9.27
2023-03-13T17:41:38.869Z,8.20
2023-03-13T17:44:31.845Z,8.50
2023-03-13T17:47:00.387Z,9.55
2023-03-13T17:49:31.092Z,10.48
2023-03-13T17:51:59.078Z,8.82
2023-03-13T17:54:27.428Z,8.13
2023-03-13T17:56:56.530Z,8.55
2023-03-13T17:59:24.866Z,7.43
2023-03-13T18:01:52.863Z,7.32
2023-03-13T18:04:20.910Z,7.93
2023-03-13T18:06:50.531Z,8.05
2023-03-13T18:09:20.933Z,8.55
2023-03-13T18:11:49.881Z,10.70
2023-03-13T18:14:17.834Z,20.08
2023-03-13T18:16:48.383Z,15.45
2023-03-13T18:19:22.801Z,13.10
2023-03-13T18:21:54.351Z,13.25
2023-03-13T18:24:23.437Z,15.25
2023-03-13T18:26:51.533Z,16.63
2023-03-13T18:29:26.048Z,15.40
2023-03-13T18:31:59.008Z,27.48
2023-03-13T18:34:28.375Z,17.90
2023-03-13T18:36:57.095Z,16.50
2023-03-13T18:39:25.030Z,16.40
2023-03-13T18:41:52.953Z,16.17
2023-03-13T18:44:21.319Z,17.92
2023-03-13T18:46:51.294Z,18.35
2023-03-13T18:49:23.575Z,16.60
2023-03-13T18:51:56.397Z,71.80
2023-03-13T18:54:25.177Z,41.20
2023-03-13T18:56:53.511Z,25.92
2023-03-13T18:59:22.847Z,23.95
2023-03-13T19:01:51.368Z,20.35
2023-03-13T19:04:19.997Z,22.10
2023-03-13T19:06:48.668Z,21.95
2023-03-13T19:12:08.674Z,32.40
2023-03-13T19:14:36.668Z,24.35
2023-03-13T19:17:07.346Z,24.58
2023-03-13T19:19:35.339Z,25.75
2023-03-13T19:22:03.852Z,26.10
2023-03-13T19:24:32.221Z,31.98
2023-03-13T19:27:00.114Z,32.22
2023-03-13T19:29:29.267Z,35.63
2023-03-13T19:31:59.315Z,34.45
2023-03-13T19:34:27.358Z,27.15
2023-03-13T19:36:55.532Z,25.75
2023-03-13T19:39:25.731Z,25.88
2023-03-13T19:41:54.040Z,26.35
2023-03-13T19:44:22.470Z,27.40
2023-03-13T19:46:50.637Z,28.77
2023-03-13T19:49:20.803Z,36.75
2023-03-13T19:51:49.579Z,39.15
2023-03-13T19:54:19.324Z,37.90
2023-03-13T19:56:52.382Z,32.88
2023-03-13T19:59:28.978Z,32.38
2023-03-13T20:01:57.058Z,34.63
2023-03-13T20:04:25.567Z,32.17
2023-03-13T20:06:53.551Z,32.90
2023-03-13T20:09:21.639Z,29.67
2023-03-13T20:11:49.718Z,29.98
2023-03-13T20:14:18.077Z,29.33
2023-03-13T20:16:48.985Z,28.67
2023-03-13T20:19:17.651Z,23.23
2023-03-13T20:21:46.760Z,23.65
2023-03-13T20:24:15.186Z,24.38
2023-03-13T20:26:43.013Z,24.92
2023-03-13T20:29:11.442Z,23.23
2023-03-13T20:31:39.939Z,22.15
2023-03-13T20:34:08.371Z,24.02
2023-03-13T20:36:36.297Z,23.42
2023-03-13T20:39:05.721Z,23.98
2023-03-13T20:41:34.337Z,22.33
2023-03-13T20:44:02.597Z,21.50
2023-03-13T20:46:30.570Z,22.58
2023-03-13T20:48:59.096Z,21.98
2023-03-13T20:51:29.105Z,19.83
2023-03-13T20:53:57.606Z,19.40
2023-03-13T20:56:25.612Z,20.13
2023-03-13T20:58:53.484Z,20.05
2023-03-13T21:01:22.488Z,23.10
2023-03-13T21:03:50.868Z,41.10
2023-03-13T21:06:19.619Z,26.13
2023-03-13T21:08:47.587Z,29.20
2023-03-13T21:11:22.120Z,32.15
2023-03-13T21:13:51.600Z,29.98
2023-03-13T21:16:20.140Z,24.50
2023-03-13T21:18:48.855Z,17.88
2023-03-13T21:21:19.350Z,15.90
2023-03-13T21:23:48.243Z,17.08
2023-03-13T21:26:16.240Z,18.17
2023-03-13T21:28:44.307Z,18.33
2023-03-13T21:31:17.667Z,14.50
2023-03-13T21:36:17.446Z,13.60
2023-03-13T21:38:46.131Z,16.80
2023-03-13T21:41:16.564Z,15.57
2023-03-13T21:43:46.471Z,19.63
2023-03-13T21:46:16.945Z,19.73
2023-03-13T21:51:13.785Z,14.40
2023-03-13T21:53:44.556Z,14.75
2023-03-13T21:56:15.816Z,14.45
2023-03-13T21:58:45.619Z,15.18
2023-03-13T22:01:14.940Z,14.18
2023-03-13T22:03:43.740Z,16.52
2023-03-13T22:06:16.668Z,14.77
2023-03-13T22:08:45.390Z,15.63
2023-03-13T22:11:14.088Z,14.60
2023-03-13T22:13:42.547Z,15.18
2023-03-13T22:16:11.602Z,14.98
2023-03-13T22:18:40.957Z,15.05
2023-03-13T22:21:09.215Z,16.02
2023-03-13T22:23:37.151Z,23.73
2023-03-13T22:26:05.632Z,22.42
2023-03-13T22:28:33.736Z,32.92
2023-03-13T22:31:03.069Z,14.15
2023-03-13T22:33:31.603Z,13.98
2023-03-13T22:35:59.627Z,12.57
2023-03-13T22:38:27.853Z,13.10
2023-03-13T22:41:05.014Z,11.75
2023-03-13T22:43:33.760Z,13.75
2023-03-13T22:46:04.595Z,14.60
2023-03-13T22:48:32.767Z,15.70
2023-03-13T22:51:10.326Z,14.35
2023-03-13T22:53:39.957Z,14.23
2023-03-13T22:56:10.105Z,14.85
2023-03-13T22:58:39.009Z,21.65
2023-03-13T23:01:09.173Z,20.67
2023-03-13T23:03:37.098Z,15.90
2023-03-13T23:06:12.982Z,11.95
2023-03-13T23:08:43.546Z,10.45
2023-03-13T23:11:12.181Z,12.27
2023-03-13T23:13:40.848Z,13.07
2023-03-13T23:16:10.933Z,12.05
2023-03-13T23:18:39.707Z,11.35
2023-03-13T23:21:10.719Z,11.88
2023-03-13T23:23:38.812Z,13.93
2023-03-13T23:26:10.648Z,14.23
2023-03-13T23:28:39.809Z,20.27
2023-03-13T23:31:18.830Z,26.83
2023-03-13T23:33:48.036Z,24.95
2023-03-13T23:36:18.486Z,19.48
2023-03-13T23:38:50.111Z,12.98
2023-03-13T23:41:18.793Z,11.18
2023-03-13T23:43:46.940Z,12.77
2023-03-13T23:46:17.396Z,12.15
2023-03-13T23:48:45.279Z,13.30
2023-03-13T23:51:13.334Z,17.02
2023-03-13T23:53:43.256Z,14.98
2023-03-13T23:56:12.738Z,20.60
2023-03-13T23:58:41.580Z,22.80
